createdAt,value
2023-05-25T00:00:49.792Z,100960.55
2023-05-25T00:03:28.936Z,100962.06
2023-05-25T00:06:02.111Z,100962.82
2023-05-25T00:08:33.876Z,100963.54
2023-05-25T00:11:06.047Z,100962.55
2023-05-25T00:13:35.021Z,100964.21
2023-05-25T00:16:04.005Z,100966.87
2023-05-25T00:18:57.607Z,100967.60
2023-05-25T00:21:30.093Z,100971.89
2023-05-25T00:23:59.094Z,100968.02
2023-05-25T00:26:27.915Z,100962.75
2023-05-25T00:29:17.326Z,100962.69
2023-05-25T00:31:46.561Z,100956.80
2023-05-25T00:34:18.914Z,100954.11
2023-05-25T00:36:51.010Z,100950.36
2023-05-25T00:39:21.064Z,100947.10
2023-05-25T00:42:10.200Z,100950.45
2023-05-25T00:44:39.321Z,100953.40
2023-05-25T00:47:13.847Z,100957.58
2023-05-25T00:49:43.044Z,100957.80
2023-05-25T00:52:16.268Z,100959.46
2023-05-25T00:54:48.961Z,100963.88
2023-05-25T00:57:19.245Z,100967.14
2023-05-25T00:59:50.229Z,100970.77
2023-05-25T01:02:21.053Z,100971.15
2023-05-25T01:04:52.623Z,100977.54
2023-05-25T01:07:25.127Z,100979.77
2023-05-25T01:09:58.102Z,100979.15
2023-05-25T01:12:30.781Z,100980.90
2023-05-25T01:15:05.700Z,100981.27
2023-05-25T01:17:38.308Z,100980.67
2023-05-25T01:20:11.634Z,100980.14
2023-05-25T01:22:47.625Z,100982.00
2023-05-25T01:25:21.992Z,100985.59
2023-05-25T01:27:52.865Z,100989.95
2023-05-25T01:30:23.807Z,100991.80
2023-05-25T01:32:55.865Z,100993.44
2023-05-25T01:35:28.397Z,100992.00
2023-05-25T01:37:59.734Z,100994.24
2023-05-25T01:40:31.602Z,100995.27
2023-05-25T01:43:03.525Z,100997.56
2023-05-25T01:45:36.086Z,100994.27
2023-05-25T01:48:19.796Z,100993.57
2023-05-25T01:50:52.616Z,100994.41
2023-05-25T01:53:24.681Z,100993.11
2023-05-25T01:55:59.371Z,100990.23
2023-05-25T01:58:29.786Z,100988.63
2023-05-25T02:01:02.668Z,100996.85
2023-05-25T02:03:31.941Z,100993.51
2023-05-25T02:06:12.354Z,100996.93
2023-05-25T02:09:01.564Z,100995.41
2023-05-25T02:11:40.691Z,100995.47
2023-05-25T02:14:21.055Z,100993.85
2023-05-25T02:16:53.179Z,100995.80
2023-05-25T02:19:42.283Z,100999.27
2023-05-25T02:22:30.081Z,101002.34
2023-05-25T02:25:01.904Z,101000.54
2023-05-25T02:27:33.374Z,101001.58
2023-05-25T02:30:22.632Z,101004.77
2023-05-25T02:32:51.835Z,101005.84
2023-05-25T02:35:42.158Z,101002.88
2023-05-25T02:38:12.078Z,101003.41
2023-05-25T02:40:44.252Z,100995.83
2023-05-25T02:43:13.394Z,100991.95
2023-05-25T02:45:42.740Z,100996.52
2023-05-25T02:48:12.520Z,100992.41
2023-05-25T02:51:02.963Z,100992.48
2023-05-25T02:53:32.079Z,100986.41
2023-05-25T02:56:11.378Z,100988.92
2023-05-25T02:58:42.709Z,100989.39
2023-05-25T03:01:18.617Z,100987.89
2023-05-25T03:04:08.176Z,100995.41
2023-05-25T03:06:39.409Z,101001.09
2023-05-25T03:09:14.771Z,101003.79
2023-05-25T03:11:47.568Z,101002.61
2023-05-25T03:14:19.684Z,101004.55
2023-05-25T03:16:54.961Z,101003.02
2023-05-25T03:19:25.117Z,101005.70
2023-05-25T03:22:14.313Z,101009.43
2023-05-25T03:24:49.487Z,101007.24
2023-05-25T03:27:19.777Z,101003.85
2023-05-25T03:29:51.292Z,100998.50
2023-05-25T03:32:27.636Z,100999.42
2023-05-25T03:35:07.705Z,100997.39
2023-05-25T03:37:37.104Z,101003.02
2023-05-25T03:40:09.610Z,101005.70
2023-05-25T03:42:59.293Z,101007.34
2023-05-25T03:45:28.402Z,101009.15
2023-05-25T03:48:00.435Z,101013.46
2023-05-25T03:50:41.048Z,101016.74
2023-05-25T03:53:10.014Z,101019.92
2023-05-25T03:55:51.973Z,101029.93
2023-05-25T03:58:21.006Z,101030.33
2023-05-25T04:01:05.082Z,101033.86
2023-05-25T04:03:38.220Z,101040.67
2023-05-25T04:06:10.037Z,101042.57
2023-05-25T04:08:59.198Z,101046.41
2023-05-25T04:11:29.256Z,101046.79
2023-05-25T04:14:00.794Z,101048.23
2023-05-25T04:16:31.973Z,101047.53
2023-05-25T04:19:01.458Z,101053.86
2023-05-25T04:21:42.848Z,101056.35
2023-05-25T04:24:12.957Z,101056.17
2023-05-25T04:26:56.634Z,101061.23
2023-05-25T04:29:28.897Z,101064.75
2023-05-25T04:32:21.675Z,101068.46
2023-05-25T04:35:14.972Z,101066.38
2023-05-25T04:37:50.080Z,101066.70
2023-05-25T04:40:21.820Z,101066.81
2023-05-25T04:43:14.180Z,101068.15
2023-05-25T04:45:43.888Z,101066.64
2023-05-25T04:48:13.227Z,101071.86
2023-05-25T04:50:42.883Z,101072.97
2023-05-25T04:53:18.239Z,101075.47
2023-05-25T04:56:07.742Z,101081.99
2023-05-25T04:58:39.630Z,101081.52
2023-05-25T05:01:11.474Z,101081.37
2023-05-25T05:03:43.030Z,101080.40
2023-05-25T05:06:32.241Z,101080.98
2023-05-25T05:09:01.560Z,101085.08
2023-05-25T05:11:41.881Z,101082.66
2023-05-25T05:14:17.117Z,101082.14
2023-05-25T05:16:49.254Z,101078.38
2023-05-25T05:19:38.416Z,101077.31
2023-05-25T05:22:13.207Z,101078.75
2023-05-25T05:24:46.338Z,101077.22
2023-05-25T05:27:23.034Z,101079.19
2023-05-25T05:30:04.101Z,101081.11
2023-05-25T05:32:33.570Z,101077.33
2023-05-25T05:35:10.050Z,101076.50
2023-05-25T05:37:50.981Z,101073.92
2023-05-25T05:40:20.139Z,101073.02
2023-05-25T05:42:51.512Z,101077.15
2023-05-25T05:45:20.599Z,101074.94
2023-05-25T05:47:58.774Z,101071.45
2023-05-25T05:50:29.267Z,101069.51
2023-05-25T05:53:00.999Z,101069.28
2023-05-25T05:55:30.200Z,101070.27
2023-05-25T05:58:02.149Z,101072.20
2023-05-25T06:00:34.297Z,101064.55
2023-05-25T06:03:24.218Z,101070.36
2023-05-25T06:05:55.882Z,101076.02
2023-05-25T06:08:27.484Z,101075.00
2023-05-25T06:10:59.302Z,101076.71
2023-05-25T06:13:28.393Z,101078.30
2023-05-25T06:15:57.798Z,101077.76
2023-05-25T06:18:29.342Z,101085.73
2023-05-25T06:21:03.661Z,101085.58
2023-05-25T06:23:35.166Z,101089.91
2023-05-25T06:26:07.630Z,101088.09
2023-05-25T06:28:36.673Z,101091.00
2023-05-25T06:31:08.920Z,101090.39
2023-05-25T06:33:43.353Z,101092.97
2023-05-25T06:36:15.728Z,101092.40
2023-05-25T06:38:48.127Z,101099.56
2023-05-25T06:41:18.383Z,101096.72
2023-05-25T06:43:57.730Z,101095.54
2023-05-25T06:46:53.030Z,101098.85
2023-05-25T06:49:24.612Z,101104.98
2023-05-25T06:52:13.712Z,101103.58
2023-05-25T06:54:42.820Z,101098.83
2023-05-25T06:57:11.903Z,101097.61
2023-05-25T06:59:43.865Z,101095.86
2023-05-25T07:02:15.475Z,101095.64
2023-05-25T07:04:44.453Z,101096.81
2023-05-25T07:07:27.849Z,101094.96
2023-05-25T07:09:59.510Z,101104.67
2023-05-25T07:12:28.866Z,101104.11
2023-05-25T07:15:01.241Z,101104.11
2023-05-25T07:17:31.577Z,101108.55
2023-05-25T07:20:00.814Z,101100.90
2023-05-25T07:22:29.765Z,101103.14
2023-05-25T07:25:10.015Z,101099.79
2023-05-25T07:27:40.119Z,101098.83
2023-05-25T07:30:12.109Z,101098.73
2023-05-25T07:32:51.345Z,101099.42
2023-05-25T07:35:23.121Z,101097.58
2023-05-25T07:38:01.190Z,101096.59
2023-05-25T07:40:30.363Z,101098.02
2023-05-25T07:43:02.084Z,101099.51
2023-05-25T07:45:31.127Z,101100.23
2023-05-25T07:48:11.213Z,101102.34
2023-05-25T07:50:40.204Z,101102.38
2023-05-25T07:53:09.216Z,101100.33
2023-05-25T07:55:41.068Z,101101.55
2023-05-25T07:58:13.230Z,101106.83
2023-05-25T08:00:42.302Z,101105.86
2023-05-25T08:03:28.912Z,101102.13
2023-05-25T08:06:05.549Z,101102.92
2023-05-25T08:08:35.074Z,101105.09
2023-05-25T08:11:04.136Z,101103.94
2023-05-25T08:13:35.555Z,101103.56
2023-05-25T08:16:04.566Z,101103.46
2023-05-25T08:18:33.511Z,101107.64
2023-05-25T08:21:02.508Z,101103.98
2023-05-25T08:23:31.800Z,101107.84
2023-05-25T08:26:01.353Z,101103.75
2023-05-25T08:28:30.297Z,101101.83
2023-05-25T08:30:59.267Z,101104.33
2023-05-25T08:33:28.918Z,101106.98
2023-05-25T08:35:59.043Z,101107.64
2023-05-25T08:38:27.961Z,101107.42
2023-05-25T08:41:04.340Z,101114.13
2023-05-25T08:43:33.409Z,101111.20
2023-05-25T08:46:04.448Z,101113.70
2023-05-25T08:48:40.983Z,101106.81
2023-05-25T08:51:12.351Z,101109.09
2023-05-25T08:53:42.185Z,101108.23
2023-05-25T08:56:18.316Z,101106.52
2023-05-25T08:58:52.993Z,101103.54
2023-05-25T09:01:23.614Z,101101.71
2023-05-25T09:03:53.502Z,101104.66
2023-05-25T09:06:26.913Z,101104.47
2023-05-25T09:08:56.169Z,101101.35
2023-05-25T09:11:37.280Z,101097.31
2023-05-25T09:14:08.441Z,101102.86
2023-05-25T09:16:38.173Z,101101.90
2023-05-25T09:19:07.720Z,101109.55
2023-05-25T09:21:37.662Z,101104.55
2023-05-25T09:24:07.204Z,101103.15
2023-05-25T09:26:36.822Z,101101.02
2023-05-25T09:29:05.921Z,101105.42
2023-05-25T09:31:34.844Z,101101.61
2023-05-25T09:34:04.004Z,101101.70
2023-05-25T09:36:35.360Z,101101.88
2023-05-25T09:39:04.819Z,101100.41
2023-05-25T09:41:34.962Z,101103.38
2023-05-25T09:44:11.135Z,101100.35
2023-05-25T09:46:41.218Z,101104.11
2023-05-25T09:49:12.701Z,101108.42
2023-05-25T09:51:41.909Z,101102.86
2023-05-25T09:54:11.569Z,101097.61
2023-05-25T09:56:41.410Z,101100.61
2023-05-25T09:59:10.371Z,101105.21
2023-05-25T10:01:41.252Z,101102.38
2023-05-25T10:04:10.990Z,101099.02
2023-05-25T10:06:40.716Z,101097.30
2023-05-25T10:09:11.994Z,101093.65
2023-05-25T10:11:42.322Z,101099.29
2023-05-25T10:14:11.297Z,101100.20
2023-05-25T10:16:42.227Z,101101.84
2023-05-25T10:19:14.941Z,101103.65
2023-05-25T10:21:46.856Z,101098.02
2023-05-25T10:24:21.199Z,101096.50
2023-05-25T10:26:51.255Z,101097.12
2023-05-25T10:29:21.450Z,101097.40
2023-05-25T10:31:51.094Z,101095.48
2023-05-25T10:34:20.692Z,101097.16
2023-05-25T10:36:50.268Z,101096.92
2023-05-25T10:39:21.374Z,101095.75
2023-05-25T10:41:51.568Z,101088.53
2023-05-25T10:44:20.821Z,101094.30
2023-05-25T10:46:50.615Z,101094.09
2023-05-25T10:49:31.510Z,101083.92
2023-05-25T10:52:00.997Z,101085.09
2023-05-25T10:54:36.217Z,101083.59
2023-05-25T10:57:12.009Z,101078.53
2023-05-25T10:59:45.537Z,101077.98
2023-05-25T11:02:16.416Z,101081.67
2023-05-25T11:04:48.021Z,101077.42
2023-05-25T11:07:19.058Z,101079.92
2023-05-25T11:09:59.378Z,101078.12
2023-05-25T11:12:28.441Z,101074.55
2023-05-25T11:15:16.311Z,101077.62
2023-05-25T11:17:58.792Z,101072.84
2023-05-25T11:20:30.091Z,101072.16
2023-05-25T11:23:00.055Z,101072.64
2023-05-25T11:25:38.794Z,101071.47
2023-05-25T11:28:08.876Z,101074.14
2023-05-25T11:30:38.163Z,101073.41
2023-05-25T11:33:09.234Z,101069.73
2023-05-25T11:35:38.279Z,101061.77
2023-05-25T11:38:08.478Z,101055.39
2023-05-25T11:40:40.254Z,101054.58
2023-05-25T11:43:11.634Z,101049.45
2023-05-25T11:45:41.559Z,101049.67
2023-05-25T11:48:13.969Z,101048.20
2023-05-25T11:50:43.138Z,101044.77
2023-05-25T11:53:12.467Z,101042.67
2023-05-25T11:55:43.686Z,101041.17
2023-05-25T11:58:12.711Z,101044.26
2023-05-25T12:00:41.865Z,101043.83
2023-05-25T12:03:12.284Z,101044.60
2023-05-25T12:05:41.693Z,101040.14
2023-05-25T12:08:10.710Z,101043.37
2023-05-25T12:10:52.360Z,101044.05
2023-05-25T12:13:21.379Z,101040.75
2023-05-25T12:15:50.648Z,101039.92
2023-05-25T12:18:19.639Z,101036.02
2023-05-25T12:20:48.868Z,101033.91
2023-05-25T12:23:18.057Z,101032.66
2023-05-25T12:25:50.798Z,101033.27
2023-05-25T12:28:20.346Z,101028.77
2023-05-25T12:30:49.675Z,101023.35
2023-05-25T12:33:18.706Z,101023.50
2023-05-25T12:35:48.248Z,101017.81
2023-05-25T12:38:18.587Z,101018.51
2023-05-25T12:40:47.813Z,101012.89
2023-05-25T12:43:17.837Z,101017.99
2023-05-25T12:45:46.807Z,101018.84
2023-05-25T12:48:16.469Z,101011.64
2023-05-25T12:51:01.135Z,101008.23
2023-05-25T12:53:31.409Z,101003.95
2023-05-25T12:56:04.037Z,101004.27
2023-05-25T12:58:32.934Z,101003.90
2023-05-25T13:01:01.939Z,101004.68
2023-05-25T13:03:30.829Z,101007.41
2023-05-25T13:06:03.252Z,101007.15
2023-05-25T13:08:32.205Z,101001.45
2023-05-25T13:11:03.754Z,101004.20
2023-05-25T13:13:32.793Z,101000.34
2023-05-25T13:16:01.814Z,101001.73
2023-05-25T13:18:31.285Z,100994.34
2023-05-25T13:21:00.466Z,100997.45
2023-05-25T13:23:29.828Z,100989.15
2023-05-25T13:25:59.372Z,100988.08
2023-05-25T13:28:28.245Z,100989.05
2023-05-25T13:30:57.134Z,100990.05
2023-05-25T13:33:26.012Z,100989.03
2023-05-25T13:36:08.179Z,100980.84
2023-05-25T13:38:37.744Z,100983.58
2023-05-25T13:41:06.775Z,100983.15
2023-05-25T13:43:35.817Z,100977.73
2023-05-25T13:46:05.655Z,100979.45
2023-05-25T13:48:34.672Z,100982.48
2023-05-25T13:51:04.168Z,100981.13
2023-05-25T13:53:33.427Z,100977.45
2023-05-25T13:56:02.314Z,100974.71
2023-05-25T13:58:31.257Z,100969.80
2023-05-25T14:01:00.226Z,100968.59
2023-05-25T14:03:29.314Z,100966.90
2023-05-25T14:05:58.425Z,100968.39
2023-05-25T14:08:27.795Z,100969.02
2023-05-25T14:10:56.650Z,100967.16
2023-05-25T14:13:25.531Z,100962.92
2023-05-25T14:15:54.492Z,100966.98
2023-05-25T14:18:23.390Z,100959.99
2023-05-25T14:20:52.687Z,100958.48
2023-05-25T14:23:21.755Z,100957.17
2023-05-25T14:25:50.635Z,100958.22
2023-05-25T14:28:19.559Z,100957.06
2023-05-25T14:30:48.453Z,100954.21
2023-05-25T14:33:17.468Z,100950.48
2023-05-25T14:35:46.732Z,100948.07
2023-05-25T14:38:15.918Z,100949.21
2023-05-25T14:40:45.074Z,100943.80
2023-05-25T14:43:14.033Z,100944.16
2023-05-25T14:45:43.139Z,100944.73
2023-05-25T14:48:16.779Z,100937.56
2023-05-25T14:50:46.198Z,100939.11
2023-05-25T14:53:15.213Z,100937.40
2023-05-25T14:55:44.284Z,100942.40
2023-05-25T14:58:13.520Z,100942.90
2023-05-25T15:00:42.376Z,100943.46
2023-05-25T15:03:11.317Z,100943.76
2023-05-25T15:05:40.635Z,100949.84
2023-05-25T15:08:09.631Z,100949.34
2023-05-25T15:10:38.551Z,100946.92
2023-05-25T15:13:07.523Z,100946.07
2023-05-25T15:15:36.523Z,100943.23
2023-05-25T15:18:06.050Z,100945.57
2023-05-25T15:20:34.996Z,100943.33
2023-05-25T15:23:03.940Z,100939.95
2023-05-25T15:25:35.437Z,100937.33
2023-05-25T15:28:04.820Z,100937.88
2023-05-25T15:30:34.581Z,100939.16
2023-05-25T15:33:04.028Z,100938.80
2023-05-25T15:35:32.941Z,100940.40
2023-05-25T15:38:02.115Z,100935.08
2023-05-25T15:40:31.481Z,100936.88
2023-05-25T15:43:00.306Z,100935.18
2023-05-25T15:45:29.226Z,100928.77
2023-05-25T15:47:58.250Z,100926.67
2023-05-25T15:50:27.193Z,100926.73
2023-05-25T15:52:56.374Z,100930.87
2023-05-25T15:55:25.221Z,100933.17
2023-05-25T15:57:54.114Z,100929.63
2023-05-25T16:00:23.286Z,100927.98
2023-05-25T16:02:52.186Z,100929.61
2023-05-25T16:05:21.071Z,100933.52
2023-05-25T16:07:50.020Z,100929.71
2023-05-25T16:10:19.019Z,100931.92
2023-05-25T16:12:48.154Z,100931.56
2023-05-25T16:15:17.199Z,100932.91
2023-05-25T16:17:46.071Z,100933.63
2023-05-25T16:20:15.231Z,100928.52
2023-05-25T16:22:44.467Z,100929.17
2023-05-25T16:25:13.312Z,100927.66
2023-05-25T16:27:42.170Z,100933.34
2023-05-25T16:30:13.526Z,100936.89
2023-05-25T16:32:42.749Z,100933.80
2023-05-25T16:35:12.092Z,100936.14
2023-05-25T16:37:41.381Z,100932.91
2023-05-25T16:40:14.325Z,100932.30
2023-05-25T16:42:43.112Z,100934.95
2023-05-25T16:45:12.281Z,100938.28
2023-05-25T16:47:41.328Z,100935.57
2023-05-25T16:50:11.126Z,100929.65
2023-05-25T16:52:40.697Z,100933.27
2023-05-25T16:55:10.077Z,100934.40
2023-05-25T16:57:38.936Z,100931.76
2023-05-25T17:00:09.178Z,100939.77
2023-05-25T17:02:38.011Z,100939.00
2023-05-25T17:05:08.562Z,100939.29
2023-05-25T17:07:39.370Z,100935.04
2023-05-25T17:10:09.551Z,100936.95
2023-05-25T17:12:38.602Z,100935.17
2023-05-25T17:15:08.717Z,100939.51
2023-05-25T17:17:37.813Z,100945.83
2023-05-25T17:20:07.231Z,100946.30
2023-05-25T17:22:37.177Z,100944.82
2023-05-25T17:25:06.844Z,100944.70
2023-05-25T17:27:35.845Z,100945.31
2023-05-25T17:30:05.178Z,100942.62
2023-05-25T17:32:34.144Z,100942.95
2023-05-25T17:35:03.375Z,100947.80
2023-05-25T17:37:32.256Z,100944.79
2023-05-25T17:40:01.325Z,100949.35
2023-05-25T17:42:30.268Z,100950.42
2023-05-25T17:44:59.336Z,100951.20
2023-05-25T17:47:28.596Z,100949.77
2023-05-25T17:49:57.693Z,100950.53
2023-05-25T17:52:26.735Z,100954.06
2023-05-25T17:54:55.682Z,100960.78
2023-05-25T17:57:24.715Z,100957.66
2023-05-25T17:59:53.662Z,100961.52
2023-05-25T18:02:23.840Z,100962.13
2023-05-25T18:04:53.028Z,100961.98
2023-05-25T18:07:22.344Z,100964.82
2023-05-25T18:09:51.259Z,100966.38
2023-05-25T18:12:20.260Z,100967.53
2023-05-25T18:14:49.124Z,100965.23
2023-05-25T18:17:18.067Z,100967.45
2023-05-25T18:19:47.215Z,100967.23
2023-05-25T18:22:16.844Z,100968.52
2023-05-25T18:24:45.878Z,100968.87
2023-05-25T18:27:14.757Z,100969.90
2023-05-25T18:29:43.989Z,100975.80
2023-05-25T18:32:12.962Z,100973.10
2023-05-25T18:34:42.353Z,100973.34
2023-05-25T18:37:11.393Z,100976.11
2023-05-25T18:39:40.512Z,100977.23
2023-05-25T18:42:09.810Z,100983.02
2023-05-25T18:44:38.669Z,100980.07
2023-05-25T18:47:07.908Z,100979.73
2023-05-25T18:49:37.870Z,100987.23
2023-05-25T18:52:08.311Z,100985.93
2023-05-25T18:54:39.424Z,100984.60
2023-05-25T18:57:08.576Z,100990.14
2023-05-25T18:59:37.538Z,100991.32
2023-05-25T19:02:06.968Z,100989.89
2023-05-25T19:04:36.042Z,100990.58
2023-05-25T19:07:05.128Z,100992.04
2023-05-25T19:09:34.393Z,100993.42
2023-05-25T19:12:04.699Z,100997.27
2023-05-25T19:14:33.919Z,101000.11
2023-05-25T19:17:02.873Z,101004.96
2023-05-25T19:19:31.827Z,101011.89
2023-05-25T19:22:00.801Z,101013.63
2023-05-25T19:24:29.829Z,101017.11
2023-05-25T19:26:58.829Z,101017.09
2023-05-25T19:29:27.993Z,101021.94
2023-05-25T19:31:56.915Z,101030.99
2023-05-25T19:34:26.235Z,101034.80
2023-05-25T19:37:07.518Z,101039.23
2023-05-25T19:39:40.190Z,101036.02
2023-05-25T19:42:09.405Z,101042.39
2023-05-25T19:44:41.646Z,101046.67
2023-05-25T19:47:10.947Z,101049.13
2023-05-25T19:49:42.761Z,101049.52
2023-05-25T19:52:11.635Z,101047.92
2023-05-25T19:54:42.863Z,101047.84
2023-05-25T19:57:14.991Z,101046.39
2023-05-25T19:59:44.019Z,101048.69
2023-05-25T20:02:13.381Z,101047.39
2023-05-25T20:04:42.450Z,101047.41
2023-05-25T20:07:11.592Z,101050.30
2023-05-25T20:09:41.342Z,101052.13
2023-05-25T20:12:11.147Z,101050.34
2023-05-25T20:14:40.179Z,101054.19
2023-05-25T20:17:09.110Z,101059.42
2023-05-25T20:19:38.243Z,101059.24
2023-05-25T20:22:08.302Z,101058.73
2023-05-25T20:24:37.263Z,101061.41
2023-05-25T20:27:07.065Z,101062.25
2023-05-25T20:29:37.276Z,101061.55
2023-05-25T20:32:07.295Z,101063.11
2023-05-25T20:34:36.550Z,101062.39
2023-05-25T20:37:05.526Z,101059.60
2023-05-25T20:39:35.958Z,101062.20
2023-05-25T20:42:05.256Z,101064.90
2023-05-25T20:44:34.285Z,101063.95
2023-05-25T20:47:03.575Z,101069.30
2023-05-25T20:49:32.540Z,101071.38
2023-05-25T20:52:01.474Z,101074.55
2023-05-25T20:54:30.720Z,101074.70
2023-05-25T20:57:01.419Z,101074.58
2023-05-25T20:59:32.346Z,101082.05
2023-05-25T21:02:01.752Z,101082.27
2023-05-25T21:04:31.974Z,101085.73
2023-05-25T21:07:01.336Z,101088.80
2023-05-25T21:09:30.555Z,101088.80
2023-05-25T21:11:59.669Z,101087.42
2023-05-25T21:14:28.509Z,101092.55
2023-05-25T21:16:57.490Z,101093.17
2023-05-25T21:19:26.498Z,101095.04
2023-05-25T21:21:55.809Z,101097.98
2023-05-25T21:24:24.731Z,101098.08
2023-05-25T21:26:56.507Z,101097.52
2023-05-25T21:29:25.441Z,101098.67
2023-05-25T21:31:54.428Z,101103.73
2023-05-25T21:34:23.511Z,101106.58
2023-05-25T21:36:52.675Z,101108.89
2023-05-25T21:39:21.603Z,101104.12
2023-05-25T21:41:50.598Z,101106.25
2023-05-25T21:44:19.527Z,101113.98
2023-05-25T21:46:48.654Z,101109.84
2023-05-25T21:49:17.562Z,101110.26
2023-05-25T21:51:46.511Z,101113.80
2023-05-25T21:54:15.521Z,101109.05
2023-05-25T21:56:44.386Z,101111.27
2023-05-25T21:59:13.226Z,101111.38
2023-05-25T22:01:42.232Z,101110.05
2023-05-25T22:04:11.330Z,101107.63
2023-05-25T22:06:40.393Z,101107.31
2023-05-25T22:09:12.361Z,101106.07
2023-05-25T22:11:41.659Z,101104.03
2023-05-25T22:14:10.649Z,101103.19
2023-05-25T22:16:39.595Z,101109.23
2023-05-25T22:19:08.767Z,101110.44
2023-05-25T22:21:37.888Z,101111.88
2023-05-25T22:24:09.354Z,101112.10
2023-05-25T22:26:38.596Z,101110.68
2023-05-25T22:29:07.616Z,101119.44
2023-05-25T22:31:36.731Z,101117.46
2023-05-25T22:34:06.194Z,101118.41
2023-05-25T22:36:35.141Z,101125.36
2023-05-25T22:39:04.348Z,101125.73
2023-05-25T22:41:53.918Z,101129.69
2023-05-25T22:44:22.923Z,101131.67
2023-05-25T22:46:51.972Z,101136.59
2023-05-25T22:49:23.307Z,101139.95
2023-05-25T22:51:52.517Z,101139.38
2023-05-25T22:54:21.513Z,101141.05
2023-05-25T22:56:51.299Z,101142.11
2023-05-25T22:59:20.415Z,101142.21
2023-05-25T23:01:49.335Z,101143.17
2023-05-25T23:04:18.629Z,101148.38
2023-05-25T23:06:47.824Z,101148.79
2023-05-25T23:09:16.757Z,101149.36
2023-05-25T23:11:45.991Z,101149.60
2023-05-25T23:14:15.087Z,101154.59
2023-05-25T23:16:44.597Z,101156.76
2023-05-25T23:19:13.727Z,101162.63
2023-05-25T23:21:42.849Z,101167.59
2023-05-25T23:24:11.821Z,101164.47
2023-05-25T23:26:40.912Z,101166.69
2023-05-25T23:29:09.954Z,101171.61
2023-05-25T23:31:39.178Z,101169.37
2023-05-25T23:34:11.421Z,101167.62
2023-05-25T23:36:42.843Z,101172.11
2023-05-25T23:39:15.297Z,101174.30
2023-05-25T23:41:44.138Z,101179.36
2023-05-25T23:44:13.150Z,101183.87
2023-05-25T23:47:02.350Z,101186.70
2023-05-25T23:49:31.334Z,101187.66
2023-05-25T23:52:02.505Z,101189.84
2023-05-25T23:54:31.545Z,101193.24
2023-05-25T23:57:12.021Z,101194.17
2023-05-25T23:59:46.461Z,101192.48
